sensor_id;sensor_type;location;lat;lon;timestamp;temperature;humidity
10312;DHT22;5201;48.776;9.128;2022-07-15T00:00:34;21.50;80.80
10312;DHT22;5201;48.776;9.128;2022-07-15T00:03:00;21.60;80.40
10312;DHT22;5201;48.776;9.128;2022-07-15T00:05:26;21.60;78.80
10312;DHT22;5201;48.776;9.128;2022-07-15T00:07:52;21.60;77.60
10312;DHT22;5201;48.776;9.128;2022-07-15T00:10:17;21.60;77.70
10312;DHT22;5201;48.776;9.128;2022-07-15T00:12:51;21.60;77.70
10312;DHT22;5201;48.776;9.128;2022-07-15T00:15:22;21.50;77.00
10312;DHT22;5201;48.776;9.128;2022-07-15T00:17:48;21.50;78.00
10312;DHT22;5201;48.776;9.128;2022-07-15T00:20:14;21.40;77.00
10312;DHT22;5201;48.776;9.128;2022-07-15T00:22:41;21.30;77.60
10312;DHT22;5201;48.776;9.128;2022-07-15T00:25:07;21.30;78.90
10312;DHT22;5201;48.776;9.128;2022-07-15T00:27:34;21.20;77.80
10312;DHT22;5201;48.776;9.128;2022-07-15T00:30:00;21.30;77.90
10312;DHT22;5201;48.776;9.128;2022-07-15T00:32:25;21.40;80.00
10312;DHT22;5201;48.776;9.128;2022-07-15T00:34:51;21.10;78.90
10312;DHT22;5201;48.776;9.128;2022-07-15T00:37:17;21.10;78.80
10312;DHT22;5201;48.776;9.128;2022-07-15T00:39:43;21.00;78.90
10312;DHT22;5201;48.776;9.128;2022-07-15T00:42:12;21.00;77.70
10312;DHT22;5201;48.776;9.128;2022-07-15T00:44:57;21.00;77.40
10312;DHT22;5201;48.776;9.128;2022-07-15T00:47:23;20.90;80.00
10312;DHT22;5201;48.776;9.128;2022-07-15T00:49:49;20.90;79.30
10312;DHT22;5201;48.776;9.128;2022-07-15T00:52:15;20.90;80.40
10312;DHT22;5201;48.776;9.128;2022-07-15T00:54:43;20.90;78.50
10312;DHT22;5201;48.776;9.128;2022-07-15T00:57:10;20.90;78.80
10312;DHT22;5201;48.776;9.128;2022-07-15T00:59:37;20.80;78.00
10312;DHT22;5201;48.776;9.128;2022-07-15T01:02:03;20.80;78.40
10312;DHT22;5201;48.776;9.128;2022-07-15T01:04:30;20.80;80.30
10312;DHT22;5201;48.776;9.128;2022-07-15T01:06:57;20.70;84.10
10312;DHT22;5201;48.776;9.128;2022-07-15T01:09:23;20.70;82.00
10312;DHT22;5201;48.776;9.128;2022-07-15T01:11:48;20.70;80.70
10312;DHT22;5201;48.776;9.128;2022-07-15T01:14:14;20.70;78.80
10312;DHT22;5201;48.776;9.128;2022-07-15T01:16:40;20.60;78.50
10312;DHT22;5201;48.776;9.128;2022-07-15T01:19:06;20.60;78.80
10312;DHT22;5201;48.776;9.128;2022-07-15T01:21:31;20.60;78.60
10312;DHT22;5201;48.776;9.128;2022-07-15T01:23:57;20.50;78.50
10312;DHT22;5201;48.776;9.128;2022-07-15T01:26:23;20.60;80.50
10312;DHT22;5201;48.776;9.128;2022-07-15T01:28:48;20.50;80.30
10312;DHT22;5201;48.776;9.128;2022-07-15T01:31:14;20.50;80.30
10312;DHT22;5201;48.776;9.128;2022-07-15T01:33:40;20.40;79.80
10312;DHT22;5201;48.776;9.128;2022-07-15T01:36:06;20.40;80.30
10312;DHT22;5201;48.776;9.128;2022-07-15T01:38:31;20.40;80.00
10312;DHT22;5201;48.776;9.128;2022-07-15T01:40:57;20.30;79.10
10312;DHT22;5201;48.776;9.128;2022-07-15T01:43:23;20.30;80.60
10312;DHT22;5201;48.776;9.128;2022-07-15T01:45:49;20.30;81.70
10312;DHT22;5201;48.776;9.128;2022-07-15T01:48:14;20.20;81.30
10312;DHT22;5201;48.776;9.128;2022-07-15T01:51:00;20.10;80.90
10312;DHT22;5201;48.776;9.128;2022-07-15T01:53:27;20.10;81.00
10312;DHT22;5201;48.776;9.128;2022-07-15T01:55:53;20.10;80.90
10312;DHT22;5201;48.776;9.128;2022-07-15T01:58:20;19.90;81.10
10312;DHT22;5201;48.776;9.128;2022-07-15T02:00:46;19.90;80.10
10312;DHT22;5201;48.776;9.128;2022-07-15T02:03:12;19.90;79.70
10312;DHT22;5201;48.776;9.128;2022-07-15T02:05:38;20.10;81.00
10312;DHT22;5201;48.776;9.128;2022-07-15T02:08:04;19.70;81.20
10312;DHT22;5201;48.776;9.128;2022-07-15T02:10:30;19.70;81.70
10312;DHT22;5201;48.776;9.128;2022-07-15T02:13:07;19.60;81.00
10312;DHT22;5201;48.776;9.128;2022-07-15T02:15:33;19.60;82.20
10312;DHT22;5201;48.776;9.128;2022-07-15T02:17:59;19.70;85.30
10312;DHT22;5201;48.776;9.128;2022-07-15T02:20:25;19.70;82.30
10312;DHT22;5201;48.776;9.128;2022-07-15T02:22:51;19.70;83.80
10312;DHT22;5201;48.776;9.128;2022-07-15T02:25:17;19.60;86.80
10312;DHT22;5201;48.776;9.128;2022-07-15T02:27:42;19.60;82.30
10312;DHT22;5201;48.776;9.128;2022-07-15T02:30:09;19.60;81.40
10312;DHT22;5201;48.776;9.128;2022-07-15T02:32:34;19.60;81.70
10312;DHT22;5201;48.776;9.128;2022-07-15T02:35:00;19.50;82.20
10312;DHT22;5201;48.776;9.128;2022-07-15T02:37:26;19.50;82.00
10312;DHT22;5201;48.776;9.128;2022-07-15T02:39:51;19.40;81.60
10312;DHT22;5201;48.776;9.128;2022-07-15T02:42:17;19.40;81.60
10312;DHT22;5201;48.776;9.128;2022-07-15T02:44:43;19.40;82.10
10312;DHT22;5201;48.776;9.128;2022-07-15T02:47:09;19.40;82.60
10312;DHT22;5201;48.776;9.128;2022-07-15T02:49:34;19.30;83.10
10312;DHT22;5201;48.776;9.128;2022-07-15T02:52:00;19.20;83.00
10312;DHT22;5201;48.776;9.128;2022-07-15T02:54:25;19.00;83.60
10312;DHT22;5201;48.776;9.128;2022-07-15T02:56:51;19.00;84.00
10312;DHT22;5201;48.776;9.128;2022-07-15T02:59:16;18.90;84.20
10312;DHT22;5201;48.776;9.128;2022-07-15T03:01:42;19.00;85.00
10312;DHT22;5201;48.776;9.128;2022-07-15T03:04:08;19.00;84.50
10312;DHT22;5201;48.776;9.128;2022-07-15T03:06:33;18.90;84.60
10312;DHT22;5201;48.776;9.128;2022-07-15T03:08:59;18.90;84.90
10312;DHT22;5201;48.776;9.128;2022-07-15T03:11:25;18.80;84.50
10312;DHT22;5201;48.776;9.128;2022-07-15T03:13:50;18.70;84.50
10312;DHT22;5201;48.776;9.128;2022-07-15T03:16:16;18.70;84.50
10312;DHT22;5201;48.776;9.128;2022-07-15T03:18:42;18.70;84.70
10312;DHT22;5201;48.776;9.128;2022-07-15T03:21:07;18.60;84.70
10312;DHT22;5201;48.776;9.128;2022-07-15T03:23:33;18.60;85.30
10312;DHT22;5201;48.776;9.128;2022-07-15T03:25:58;18.50;85.30
10312;DHT22;5201;48.776;9.128;2022-07-15T03:28:24;18.50;86.00
10312;DHT22;5201;48.776;9.128;2022-07-15T03:30:50;18.50;85.20
10312;DHT22;5201;48.776;9.128;2022-07-15T03:33:15;18.50;85.20
10312;DHT22;5201;48.776;9.128;2022-07-15T03:35:41;18.40;85.70
10312;DHT22;5201;48.776;9.128;2022-07-15T03:38:08;18.50;86.20
10312;DHT22;5201;48.776;9.128;2022-07-15T03:40:34;18.50;86.30
10312;DHT22;5201;48.776;9.128;2022-07-15T03:42:59;18.50;85.90
10312;DHT22;5201;48.776;9.128;2022-07-15T03:45:25;18.50;87.30
10312;DHT22;5201;48.776;9.128;2022-07-15T03:47:51;18.50;86.20
10312;DHT22;5201;48.776;9.128;2022-07-15T03:50:16;18.50;86.30
10312;DHT22;5201;48.776;9.128;2022-07-15T03:52:42;18.50;88.20
10312;DHT22;5201;48.776;9.128;2022-07-15T03:55:08;18.50;86.90
10312;DHT22;5201;48.776;9.128;2022-07-15T03:57:35;18.60;86.80
10312;DHT22;5201;48.776;9.128;2022-07-15T04:00:01;18.60;87.10
10312;DHT22;5201;48.776;9.128;2022-07-15T04:02:26;18.70;86.90
10312;DHT22;5201;48.776;9.128;2022-07-15T04:04:52;19.00;86.00
10312;DHT22;5201;48.776;9.128;2022-07-15T04:07:18;19.30;86.30
10312;DHT22;5201;48.776;9.128;2022-07-15T04:09:43;19.30;86.00
10312;DHT22;5201;48.776;9.128;2022-07-15T04:12:09;19.40;85.90
10312;DHT22;5201;48.776;9.128;2022-07-15T04:14:35;19.60;84.70
10312;DHT22;5201;48.776;9.128;2022-07-15T04:17:01;19.80;83.50
10312;DHT22;5201;48.776;9.128;2022-07-15T04:19:28;20.00;83.00
10312;DHT22;5201;48.776;9.128;2022-07-15T04:21:54;20.40;82.60
10312;DHT22;5201;48.776;9.128;2022-07-15T04:24:20;20.80;82.80
10312;DHT22;5201;48.776;9.128;2022-07-15T04:26:45;21.20;82.20
10312;DHT22;5201;48.776;9.128;2022-07-15T04:29:11;21.70;81.30
10312;DHT22;5201;48.776;9.128;2022-07-15T04:31:36;22.10;79.80
10312;DHT22;5201;48.776;9.128;2022-07-15T04:34:02;22.20;78.90
10312;DHT22;5201;48.776;9.128;2022-07-15T04:36:28;22.10;79.10
10312;DHT22;5201;48.776;9.128;2022-07-15T04:38:53;21.90;80.40
10312;DHT22;5201;48.776;9.128;2022-07-15T04:41:19;21.60;79.80
10312;DHT22;5201;48.776;9.128;2022-07-15T04:43:44;21.40;79.40
10312;DHT22;5201;48.776;9.128;2022-07-15T04:46:11;21.20;82.20
10312;DHT22;5201;48.776;9.128;2022-07-15T04:48:36;20.90;82.10
10312;DHT22;5201;48.776;9.128;2022-07-15T04:51:20;20.70;82.00
10312;DHT22;5201;48.776;9.128;2022-07-15T04:53:46;20.60;82.20
10312;DHT22;5201;48.776;9.128;2022-07-15T04:56:12;20.40;82.60
10312;DHT22;5201;48.776;9.128;2022-07-15T04:58:38;20.30;83.10
10312;DHT22;5201;48.776;9.128;2022-07-15T05:01:03;20.20;83.60
10312;DHT22;5201;48.776;9.128;2022-07-15T05:03:29;20.00;84.60
10312;DHT22;5201;48.776;9.128;2022-07-15T05:05:55;19.90;85.00
10312;DHT22;5201;48.776;9.128;2022-07-15T05:08:20;20.00;85.90
10312;DHT22;5201;48.776;9.128;2022-07-15T05:10:46;20.10;84.50
10312;DHT22;5201;48.776;9.128;2022-07-15T05:13:12;20.00;86.10
10312;DHT22;5201;48.776;9.128;2022-07-15T05:15:38;20.10;83.90
10312;DHT22;5201;48.776;9.128;2022-07-15T05:18:03;20.10;83.90
10312;DHT22;5201;48.776;9.128;2022-07-15T05:20:29;20.10;82.90
10312;DHT22;5201;48.776;9.128;2022-07-15T05:22:55;20.00;86.80
10312;DHT22;5201;48.776;9.128;2022-07-15T05:25:20;20.00;86.50
10312;DHT22;5201;48.776;9.128;2022-07-15T05:27:46;19.90;86.90
10312;DHT22;5201;48.776;9.128;2022-07-15T05:30:13;19.90;84.40
10312;DHT22;5201;48.776;9.128;2022-07-15T05:32:41;19.90;88.00
10312;DHT22;5201;48.776;9.128;2022-07-15T05:35:07;20.00;86.70
10312;DHT22;5201;48.776;9.128;2022-07-15T05:37:33;20.10;82.80
10312;DHT22;5201;48.776;9.128;2022-07-15T05:40:01;20.10;82.70
10312;DHT22;5201;48.776;9.128;2022-07-15T05:42:27;20.10;83.40
10312;DHT22;5201;48.776;9.128;2022-07-15T05:44:52;20.20;83.00
10312;DHT22;5201;48.776;9.128;2022-07-15T05:47:18;20.10;82.40
10312;DHT22;5201;48.776;9.128;2022-07-15T05:49:44;20.10;83.00
10312;DHT22;5201;48.776;9.128;2022-07-15T05:52:09;20.10;83.70
10312;DHT22;5201;48.776;9.128;2022-07-15T05:54:35;20.10;82.40
10312;DHT22;5201;48.776;9.128;2022-07-15T05:57:02;20.10;82.70
10312;DHT22;5201;48.776;9.128;2022-07-15T05:59:28;20.10;83.40
10312;DHT22;5201;48.776;9.128;2022-07-15T06:01:55;20.10;81.80
10312;DHT22;5201;48.776;9.128;2022-07-15T06:04:20;20.20;81.80
10312;DHT22;5201;48.776;9.128;2022-07-15T06:06:46;20.30;83.10
10312;DHT22;5201;48.776;9.128;2022-07-15T06:09:12;20.30;83.30
10312;DHT22;5201;48.776;9.128;2022-07-15T06:11:38;20.60;82.70
10312;DHT22;5201;48.776;9.128;2022-07-15T06:14:04;21.30;83.50
10312;DHT22;5201;48.776;9.128;2022-07-15T06:16:30;22.10;81.50
10312;DHT22;5201;48.776;9.128;2022-07-15T06:18:56;23.00;80.10
10312;DHT22;5201;48.776;9.128;2022-07-15T06:21:22;23.70;78.70
10312;DHT22;5201;48.776;9.128;2022-07-15T06:23:47;24.30;76.80
10312;DHT22;5201;48.776;9.128;2022-07-15T06:26:13;24.80;75.90
10312;DHT22;5201;48.776;9.128;2022-07-15T06:28:38;25.20;74.80
10312;DHT22;5201;48.776;9.128;2022-07-15T06:31:04;25.70;74.00
10312;DHT22;5201;48.776;9.128;2022-07-15T06:33:30;26.10;71.30
10312;DHT22;5201;48.776;9.128;2022-07-15T06:35:55;26.50;71.60
10312;DHT22;5201;48.776;9.128;2022-07-15T06:41:34;26.70;70.40
10312;DHT22;5201;48.776;9.128;2022-07-15T06:44:00;26.90;69.50
10312;DHT22;5201;48.776;9.128;2022-07-15T06:46:26;26.90;69.40
10312;DHT22;5201;48.776;9.128;2022-07-15T06:48:53;26.90;68.00
10312;DHT22;5201;48.776;9.128;2022-07-15T06:51:18;27.00;68.20
10312;DHT22;5201;48.776;9.128;2022-07-15T06:53:44;27.00;68.30
10312;DHT22;5201;48.776;9.128;2022-07-15T06:56:10;27.10;67.10
10312;DHT22;5201;48.776;9.128;2022-07-15T06:58:36;27.30;68.10
10312;DHT22;5201;48.776;9.128;2022-07-15T07:01:01;27.30;67.30
10312;DHT22;5201;48.776;9.128;2022-07-15T07:03:27;27.30;67.30
10312;DHT22;5201;48.776;9.128;2022-07-15T07:05:53;27.40;66.70
10312;DHT22;5201;48.776;9.128;2022-07-15T07:08:18;27.50;66.80
10312;DHT22;5201;48.776;9.128;2022-07-15T07:10:44;27.60;66.30
10312;DHT22;5201;48.776;9.128;2022-07-15T07:13:10;27.90;64.20
10312;DHT22;5201;48.776;9.128;2022-07-15T07:15:35;27.60;60.60
10312;DHT22;5201;48.776;9.128;2022-07-15T07:18:01;28.10;62.50
10312;DHT22;5201;48.776;9.128;2022-07-15T07:20:28;28.70;61.60
10312;DHT22;5201;48.776;9.128;2022-07-15T07:22:54;29.00;57.10
10312;DHT22;5201;48.776;9.128;2022-07-15T07:25:19;28.30;56.60
10312;DHT22;5201;48.776;9.128;2022-07-15T07:27:45;28.10;57.00
10312;DHT22;5201;48.776;9.128;2022-07-15T07:30:11;28.50;59.30
10312;DHT22;5201;48.776;9.128;2022-07-15T07:32:37;28.70;57.70
10312;DHT22;5201;48.776;9.128;2022-07-15T07:35:03;29.40;57.70
10312;DHT22;5201;48.776;9.128;2022-07-15T07:37:33;29.30;54.90
10312;DHT22;5201;48.776;9.128;2022-07-15T07:39:59;28.90;55.30
10312;DHT22;5201;48.776;9.128;2022-07-15T07:42:25;29.00;56.00
10312;DHT22;5201;48.776;9.128;2022-07-15T07:44:50;29.20;58.10
10312;DHT22;5201;48.776;9.128;2022-07-15T07:47:16;29.50;56.80
10312;DHT22;5201;48.776;9.128;2022-07-15T07:49:42;30.00;58.30
10312;DHT22;5201;48.776;9.128;2022-07-15T07:52:07;30.30;57.20
10312;DHT22;5201;48.776;9.128;2022-07-15T07:54:33;30.60;56.40
10312;DHT22;5201;48.776;9.128;2022-07-15T07:56:59;30.80;57.70
10312;DHT22;5201;48.776;9.128;2022-07-15T07:59:24;30.90;57.10
10312;DHT22;5201;48.776;9.128;2022-07-15T08:01:50;31.20;55.70
10312;DHT22;5201;48.776;9.128;2022-07-15T08:04:16;31.40;55.70
10312;DHT22;5201;48.776;9.128;2022-07-15T08:06:42;31.50;53.50
10312;DHT22;5201;48.776;9.128;2022-07-15T08:09:07;30.70;54.30
10312;DHT22;5201;48.776;9.128;2022-07-15T08:11:33;30.20;54.50
10312;DHT22;5201;48.776;9.128;2022-07-15T08:13:58;30.90;54.20
10312;DHT22;5201;48.776;9.128;2022-07-15T08:16:24;30.60;54.40
10312;DHT22;5201;48.776;9.128;2022-07-15T08:18:50;31.10;56.30
10312;DHT22;5201;48.776;9.128;2022-07-15T08:21:16;31.50;53.10
10312;DHT22;5201;48.776;9.128;2022-07-15T08:23:41;30.90;54.30
10312;DHT22;5201;48.776;9.128;2022-07-15T08:26:07;30.30;54.40
10312;DHT22;5201;48.776;9.128;2022-07-15T08:28:34;30.90;55.70
10312;DHT22;5201;48.776;9.128;2022-07-15T08:31:00;31.60;55.10
10312;DHT22;5201;48.776;9.128;2022-07-15T08:33:25;31.80;53.30
10312;DHT22;5201;48.776;9.128;2022-07-15T08:35:51;31.80;53.90
10312;DHT22;5201;48.776;9.128;2022-07-15T08:38:17;32.00;54.50
10312;DHT22;5201;48.776;9.128;2022-07-15T08:40:42;32.20;54.50
10312;DHT22;5201;48.776;9.128;2022-07-15T08:43:10;32.30;55.40
10312;DHT22;5201;48.776;9.128;2022-07-15T08:45:37;32.60;53.70
10312;DHT22;5201;48.776;9.128;2022-07-15T08:48:07;32.40;53.70
10312;DHT22;5201;48.776;9.128;2022-07-15T08:50:33;31.40;52.10
10312;DHT22;5201;48.776;9.128;2022-07-15T08:52:59;31.40;52.90
10312;DHT22;5201;48.776;9.128;2022-07-15T08:55:26;31.00;53.40
10312;DHT22;5201;48.776;9.128;2022-07-15T08:57:53;31.20;55.80
10312;DHT22;5201;48.776;9.128;2022-07-15T09:00:24;31.70;56.10
10312;DHT22;5201;48.776;9.128;2022-07-15T09:02:55;32.20;53.90
10312;DHT22;5201;48.776;9.128;2022-07-15T09:05:32;32.70;54.10
10312;DHT22;5201;48.776;9.128;2022-07-15T09:08:03;32.80;53.60
10312;DHT22;5201;48.776;9.128;2022-07-15T09:10:52;32.90;52.20
10312;DHT22;5201;48.776;9.128;2022-07-15T09:13:36;32.60;52.50
10312;DHT22;5201;48.776;9.128;2022-07-15T09:16:06;32.40;53.60
10312;DHT22;5201;48.776;9.128;2022-07-15T09:18:36;32.40;53.50
10312;DHT22;5201;48.776;9.128;2022-07-15T09:21:14;32.40;53.00
10312;DHT22;5201;48.776;9.128;2022-07-15T09:23:40;32.40;54.60
10312;DHT22;5201;48.776;9.128;2022-07-15T09:26:28;32.40;53.20
10312;DHT22;5201;48.776;9.128;2022-07-15T09:28:55;32.10;53.90
10312;DHT22;5201;48.776;9.128;2022-07-15T09:31:34;31.60;53.50
10312;DHT22;5201;48.776;9.128;2022-07-15T09:34:21;31.40;53.90
10312;DHT22;5201;48.776;9.128;2022-07-15T09:36:52;30.60;53.80
10312;DHT22;5201;48.776;9.128;2022-07-15T09:39:20;30.60;55.90
10312;DHT22;5201;48.776;9.128;2022-07-15T09:41:47;31.00;55.50
10312;DHT22;5201;48.776;9.128;2022-07-15T09:44:16;31.10;55.20
10312;DHT22;5201;48.776;9.128;2022-07-15T09:51:54;31.50;54.20
10312;DHT22;5201;48.776;9.128;2022-07-15T09:54:26;30.50;55.60
10312;DHT22;5201;48.776;9.128;2022-07-15T09:56:53;30.00;56.10
10312;DHT22;5201;48.776;9.128;2022-07-15T09:59:19;29.90;55.30
10312;DHT22;5201;48.776;9.128;2022-07-15T10:01:45;30.00;55.20
10312;DHT22;5201;48.776;9.128;2022-07-15T10:04:19;30.30;55.70
10312;DHT22;5201;48.776;9.128;2022-07-15T10:06:47;30.20;54.80
10312;DHT22;5201;48.776;9.128;2022-07-15T10:09:13;30.20;55.20
10312;DHT22;5201;48.776;9.128;2022-07-15T10:11:43;30.20;55.80
10312;DHT22;5201;48.776;9.128;2022-07-15T10:16:54;30.30;55.70
10312;DHT22;5201;48.776;9.128;2022-07-15T10:25:22;29.70;57.40
10312;DHT22;5201;48.776;9.128;2022-07-15T10:27:59;30.10;57.90
10312;DHT22;5201;48.776;9.128;2022-07-15T10:30:26;30.30;57.00
10312;DHT22;5201;48.776;9.128;2022-07-15T10:33:27;30.20;56.30
10312;DHT22;5201;48.776;9.128;2022-07-15T10:35:54;30.20;56.90
10312;DHT22;5201;48.776;9.128;2022-07-15T10:38:29;30.10;57.70
10312;DHT22;5201;48.776;9.128;2022-07-15T10:46:18;30.00;57.40
10312;DHT22;5201;48.776;9.128;2022-07-15T10:48:46;30.20;57.70
10312;DHT22;5201;48.776;9.128;2022-07-15T10:51:13;30.20;56.80
10312;DHT22;5201;48.776;9.128;2022-07-15T10:53:58;30.10;56.00
10312;DHT22;5201;48.776;9.128;2022-07-15T10:59:16;30.50;58.00
10312;DHT22;5201;48.776;9.128;2022-07-15T11:01:50;30.80;56.60
10312;DHT22;5201;48.776;9.128;2022-07-15T11:04:32;30.90;56.90
10312;DHT22;5201;48.776;9.128;2022-07-15T11:15:04;31.00;54.90
10312;DHT22;5201;48.776;9.128;2022-07-15T11:20:02;30.20;56.40
10312;DHT22;5201;48.776;9.128;2022-07-15T11:22:31;29.70;56.60
10312;DHT22;5201;48.776;9.128;2022-07-15T11:24:57;29.40;57.50
10312;DHT22;5201;48.776;9.128;2022-07-15T11:27:24;29.50;57.80
10312;DHT22;5201;48.776;9.128;2022-07-15T11:29:59;29.70;58.00
10312;DHT22;5201;48.776;9.128;2022-07-15T11:32:32;29.80;58.30
10312;DHT22;5201;48.776;9.128;2022-07-15T11:35:00;29.90;56.70
10312;DHT22;5201;48.776;9.128;2022-07-15T11:37:34;30.00;58.30
10312;DHT22;5201;48.776;9.128;2022-07-15T11:40:11;30.10;58.60
10312;DHT22;5201;48.776;9.128;2022-07-15T11:42:57;30.20;55.80
10312;DHT22;5201;48.776;9.128;2022-07-15T11:45:41;30.10;59.30
10312;DHT22;5201;48.776;9.128;2022-07-15T11:48:07;30.20;58.30
10312;DHT22;5201;48.776;9.128;2022-07-15T11:50:36;30.20;57.40
10312;DHT22;5201;48.776;9.128;2022-07-15T11:53:13;30.10;58.40
10312;DHT22;5201;48.776;9.128;2022-07-15T11:55:59;29.90;57.20
10312;DHT22;5201;48.776;9.128;2022-07-15T11:58:31;29.90;58.30
10312;DHT22;5201;48.776;9.128;2022-07-15T12:01:02;29.60;57.40
10312;DHT22;5201;48.776;9.128;2022-07-15T12:03:42;29.40;58.70
10312;DHT22;5201;48.776;9.128;2022-07-15T12:06:22;29.30;59.20
10312;DHT22;5201;48.776;9.128;2022-07-15T12:08:55;29.20;59.40
10312;DHT22;5201;48.776;9.128;2022-07-15T12:11:27;29.30;58.00
10312;DHT22;5201;48.776;9.128;2022-07-15T12:16:34;28.40;58.00
10312;DHT22;5201;48.776;9.128;2022-07-15T12:19:08;28.30;59.10
10312;DHT22;5201;48.776;9.128;2022-07-15T12:21:36;28.40;59.80
10312;DHT22;5201;48.776;9.128;2022-07-15T12:24:10;28.50;59.70
10312;DHT22;5201;48.776;9.128;2022-07-15T12:29:35;28.10;59.20
10312;DHT22;5201;48.776;9.128;2022-07-15T12:32:09;27.80;60.10
10312;DHT22;5201;48.776;9.128;2022-07-15T12:38:06;27.50;61.10
10312;DHT22;5201;48.776;9.128;2022-07-15T12:40:10;27.50;60.10
10312;DHT22;5201;48.776;9.128;2022-07-15T12:42:44;27.40;61.50
10312;DHT22;5201;48.776;9.128;2022-07-15T12:45:12;27.30;62.40
10312;DHT22;5201;48.776;9.128;2022-07-15T12:50:36;27.40;62.00
10312;DHT22;5201;48.776;9.128;2022-07-15T12:53:03;27.60;61.90
10312;DHT22;5201;48.776;9.128;2022-07-15T12:55:33;27.70;60.90
10312;DHT22;5201;48.776;9.128;2022-07-15T12:58:10;27.60;61.20
10312;DHT22;5201;48.776;9.128;2022-07-15T13:00:37;27.60;61.90
10312;DHT22;5201;48.776;9.128;2022-07-15T13:03:15;27.60;62.80
10312;DHT22;5201;48.776;9.128;2022-07-15T13:05:46;27.60;62.50
10312;DHT22;5201;48.776;9.128;2022-07-15T13:08:13;27.50;61.50
10312;DHT22;5201;48.776;9.128;2022-07-15T13:10:41;27.50;62.10
10312;DHT22;5201;48.776;9.128;2022-07-15T13:13:08;27.40;62.70
10312;DHT22;5201;48.776;9.128;2022-07-15T13:15:34;27.40;62.80
10312;DHT22;5201;48.776;9.128;2022-07-15T13:18:01;27.40;61.70
10312;DHT22;5201;48.776;9.128;2022-07-15T13:20:27;27.30;62.20
10312;DHT22;5201;48.776;9.128;2022-07-15T13:22:53;27.10;63.20
10312;DHT22;5201;48.776;9.128;2022-07-15T13:25:19;27.20;61.70
10312;DHT22;5201;48.776;9.128;2022-07-15T13:27:45;27.10;63.80
10312;DHT22;5201;48.776;9.128;2022-07-15T13:30:11;27.00;63.80
10312;DHT22;5201;48.776;9.128;2022-07-15T13:32:38;27.10;63.20
10312;DHT22;5201;48.776;9.128;2022-07-15T13:35:05;27.20;63.10
10312;DHT22;5201;48.776;9.128;2022-07-15T13:37:31;27.30;61.80
10312;DHT22;5201;48.776;9.128;2022-07-15T13:39:56;27.30;61.30
10312;DHT22;5201;48.776;9.128;2022-07-15T13:42:22;27.00;61.70
10312;DHT22;5201;48.776;9.128;2022-07-15T13:44:50;26.90;61.70
10312;DHT22;5201;48.776;9.128;2022-07-15T13:47:16;26.80;62.30
10312;DHT22;5201;48.776;9.128;2022-07-15T13:49:41;26.60;62.70
10312;DHT22;5201;48.776;9.128;2022-07-15T13:52:25;26.40;62.50
10312;DHT22;5201;48.776;9.128;2022-07-15T13:54:51;26.30;63.00
10312;DHT22;5201;48.776;9.128;2022-07-15T13:57:16;26.20;63.60
10312;DHT22;5201;48.776;9.128;2022-07-15T13:59:42;26.20;64.10
10312;DHT22;5201;48.776;9.128;2022-07-15T14:02:08;26.20;64.20
10312;DHT22;5201;48.776;9.128;2022-07-15T14:04:34;26.10;64.30
10312;DHT22;5201;48.776;9.128;2022-07-15T14:06:59;26.10;63.80
10312;DHT22;5201;48.776;9.128;2022-07-15T14:09:25;26.00;63.50
10312;DHT22;5201;48.776;9.128;2022-07-15T14:11:51;25.90;64.80
10312;DHT22;5201;48.776;9.128;2022-07-15T14:14:17;26.00;64.90
10312;DHT22;5201;48.776;9.128;2022-07-15T14:16:42;26.10;64.70
10312;DHT22;5201;48.776;9.128;2022-07-15T14:19:08;26.20;63.60
10312;DHT22;5201;48.776;9.128;2022-07-15T14:21:34;26.10;64.50
10312;DHT22;5201;48.776;9.128;2022-07-15T14:23:59;26.00;64.20
10312;DHT22;5201;48.776;9.128;2022-07-15T14:26:25;26.00;64.10
10312;DHT22;5201;48.776;9.128;2022-07-15T14:28:50;26.00;63.50
10312;DHT22;5201;48.776;9.128;2022-07-15T14:31:16;25.90;64.00
10312;DHT22;5201;48.776;9.128;2022-07-15T14:33:43;25.90;64.00
10312;DHT22;5201;48.776;9.128;2022-07-15T14:36:10;25.90;64.30
10312;DHT22;5201;48.776;9.128;2022-07-15T14:38:37;25.90;64.30
10312;DHT22;5201;48.776;9.128;2022-07-15T14:41:03;25.90;65.30
10312;DHT22;5201;48.776;9.128;2022-07-15T14:43:29;25.80;64.40
10312;DHT22;5201;48.776;9.128;2022-07-15T14:45:55;25.80;64.10
10312;DHT22;5201;48.776;9.128;2022-07-15T14:48:20;25.80;64.80
10312;DHT22;5201;48.776;9.128;2022-07-15T14:50:46;25.90;65.70
10312;DHT22;5201;48.776;9.128;2022-07-15T14:53:13;25.90;65.40
10312;DHT22;5201;48.776;9.128;2022-07-15T14:55:38;25.80;64.60
10312;DHT22;5201;48.776;9.128;2022-07-15T14:58:04;25.90;64.30
10312;DHT22;5201;48.776;9.128;2022-07-15T15:00:30;25.90;65.40
10312;DHT22;5201;48.776;9.128;2022-07-15T15:02:56;25.90;64.70
10312;DHT22;5201;48.776;9.128;2022-07-15T15:05:22;25.90;64.40
10312;DHT22;5201;48.776;9.128;2022-07-15T15:07:48;25.80;64.90
10312;DHT22;5201;48.776;9.128;2022-07-15T15:10:14;25.90;64.60
10312;DHT22;5201;48.776;9.128;2022-07-15T15:12:40;25.80;64.10
10312;DHT22;5201;48.776;9.128;2022-07-15T15:15:07;25.80;64.10
10312;DHT22;5201;48.776;9.128;2022-07-15T15:17:32;26.30;63.90
10312;DHT22;5201;48.776;9.128;2022-07-15T15:19:58;25.80;64.50
10312;DHT22;5201;48.776;9.128;2022-07-15T15:22:24;25.90;63.80
10312;DHT22;5201;48.776;9.128;2022-07-15T15:24:49;25.90;63.60
10312;DHT22;5201;48.776;9.128;2022-07-15T15:27:15;25.90;63.10
10312;DHT22;5201;48.776;9.128;2022-07-15T15:29:40;25.90;64.50
10312;DHT22;5201;48.776;9.128;2022-07-15T15:32:07;25.90;63.50
10312;DHT22;5201;48.776;9.128;2022-07-15T15:34:39;26.00;63.50
10312;DHT22;5201;48.776;9.128;2022-07-15T15:37:04;26.00;63.40
10312;DHT22;5201;48.776;9.128;2022-07-15T15:39:30;26.00;63.20
10312;DHT22;5201;48.776;9.128;2022-07-15T15:41:56;26.00;64.00
10312;DHT22;5201;48.776;9.128;2022-07-15T15:44:21;26.00;63.50
10312;DHT22;5201;48.776;9.128;2022-07-15T15:46:47;25.90;63.80
10312;DHT22;5201;48.776;9.128;2022-07-15T15:49:12;25.80;63.60
10312;DHT22;5201;48.776;9.128;2022-07-15T15:51:38;25.80;63.00
10312;DHT22;5201;48.776;9.128;2022-07-15T15:54:04;25.80;62.40
10312;DHT22;5201;48.776;9.128;2022-07-15T15:56:29;25.80;62.30
10312;DHT22;5201;48.776;9.128;2022-07-15T15:58:55;25.80;63.00
10312;DHT22;5201;48.776;9.128;2022-07-15T16:01:21;25.80;62.50
10312;DHT22;5201;48.776;9.128;2022-07-15T16:03:47;25.70;62.60
10312;DHT22;5201;48.776;9.128;2022-07-15T16:06:13;25.60;62.10
10312;DHT22;5201;48.776;9.128;2022-07-15T16:08:39;25.60;63.00
10312;DHT22;5201;48.776;9.128;2022-07-15T16:11:05;25.60;62.40
10312;DHT22;5201;48.776;9.128;2022-07-15T16:13:30;25.50;62.30
10312;DHT22;5201;48.776;9.128;2022-07-15T16:15:56;25.50;63.90
10312;DHT22;5201;48.776;9.128;2022-07-15T16:18:21;25.50;62.40
10312;DHT22;5201;48.776;9.128;2022-07-15T16:20:47;25.40;62.10
10312;DHT22;5201;48.776;9.128;2022-07-15T16:23:14;25.40;63.90
10312;DHT22;5201;48.776;9.128;2022-07-15T16:25:40;25.20;63.80
10312;DHT22;5201;48.776;9.128;2022-07-15T16:28:08;25.20;62.90
10312;DHT22;5201;48.776;9.128;2022-07-15T16:30:40;25.20;63.70
10312;DHT22;5201;48.776;9.128;2022-07-15T16:33:06;25.30;62.70